»·PEaware :: N493RM KIFP-KTRM

N493RM :: KIFP-KTRM

FLIGHT INFORMATION

Flight Status: Arrived
Operator: Privately registered:
United States
More flights under this callsign
Pilot: Alexander S. (32711)
Aircraft: CESSNA 172 SKYHAWK
(C172)
More flights by this aircraft type
Origin: KIFP Laughlin/Bullhead Intl
United States
Destination: KTRM Desert Resorts Regl
United States
More flights between these airports :: More routes between these airports
Route:
File this flight plan on PilotEdge
Remarks: ALPHABET ZLA 9
Altitude:
(Current/Filed)
6,500ft
Speed:
(Current/Filed)
110kts
Departed: 13-Jan-21 06:45 PM
Arrived: 13-Jan-21 07:53 PM
Distance/Time
Traveled:
121nm/1:07
Distance/Time
To Go:
Arrived

Flight Plot

Page will automatically refresh every two minutes.


Map Options




Map Legend


Flown Route
Filed Route
Departure Airport
Arrival Airport
Navaid (VOR, NDB)
Fix

Horizontal Profiles

Position Reports

Time Latitude Longitude Heading Altitude Ground
Speed
13-Jan-21 18:23 35.158610 -114.556018 266 705ft 0kts
13-Jan-21 18:24 35.158610 -114.556018 266 705ft 0kts
13-Jan-21 18:25 35.158610 -114.556019 266 705ft 0kts
13-Jan-21 18:26 35.158610 -114.556019 266 705ft 0kts
13-Jan-21 18:27 35.158610 -114.556019 266 705ft 0kts
13-Jan-21 18:28 35.158610 -114.556019 266 705ft 0kts
13-Jan-21 18:29 35.158610 -114.556019 266 705ft 0kts
13-Jan-21 18:30 35.158610 -114.556019 266 705ft 0kts
13-Jan-21 18:31 35.158610 -114.556019 266 705ft 0kts
13-Jan-21 18:32 35.158610 -114.556019 266 705ft 0kts
13-Jan-21 18:33 35.158610 -114.556019 266 705ft 0kts
13-Jan-21 18:34 35.158610 -114.556019 266 705ft 0kts
13-Jan-21 18:35 35.158610 -114.556019 266 705ft 0kts
13-Jan-21 18:36 35.158610 -114.556019 266 705ft 0kts
13-Jan-21 18:37 35.157585 -114.556472 181 705ft 13kts
13-Jan-21 18:38 35.155842 -114.557786 231 705ft 12kts
13-Jan-21 18:39 35.150368 -114.557625 176 705ft 18kts
13-Jan-21 18:40 35.145512 -114.557294 177 705ft 18kts
13-Jan-21 18:41 35.143188 -114.557457 238 704ft 0kts
13-Jan-21 18:42 35.143188 -114.557457 238 704ft 0kts
13-Jan-21 18:43 35.143188 -114.557457 238 704ft 0kts
13-Jan-21 18:44 35.145362 -114.558651 355 705ft 50kts
13-Jan-21 18:45 35.163442 -114.559530 354 1439ft 66kts
13-Jan-21 18:46 35.174768 -114.573712 257 2108ft 89kts
13-Jan-21 18:47 35.146841 -114.578027 177 2687ft 107kts
13-Jan-21 18:48 35.118917 -114.577811 217 3352ft 95kts
13-Jan-21 18:49 35.100667 -114.599051 238 4005ft 87kts
13-Jan-21 18:50 35.085808 -114.622977 238 4575ft 93kts
13-Jan-21 18:51 35.068023 -114.647727 237 5149ft 99kts
13-Jan-21 18:52 35.048973 -114.672522 232 5762ft 101kts
13-Jan-21 18:53 35.029289 -114.697890 238 6301ft 105kts
13-Jan-21 18:54 35.007857 -114.727401 232 6433ft 123kts
13-Jan-21 18:55 34.982850 -114.756739 231 6351ft 120kts
13-Jan-21 18:56 34.958824 -114.784343 226 6441ft 119kts
13-Jan-21 18:57 34.932490 -114.810367 224 6441ft 123kts
13-Jan-21 18:58 34.906721 -114.837382 231 6439ft 119kts
13-Jan-21 18:59 34.880723 -114.863626 223 6369ft 121kts
13-Jan-21 19:00 34.853204 -114.888025 223 6357ft 125kts
13-Jan-21 19:01 34.826397 -114.916761 231 6440ft 128kts
13-Jan-21 19:02 34.800403 -114.948083 226 6493ft 131kts
13-Jan-21 19:03 34.773016 -114.977337 226 6379ft 132kts
13-Jan-21 19:04 34.745240 -115.006504 225 6305ft 131kts
13-Jan-21 19:05 34.716923 -115.034406 221 6432ft 129kts
13-Jan-21 19:06 34.688714 -115.062610 227 6485ft 129kts
13-Jan-21 19:07 34.660717 -115.091846 226 6456ft 133kts
13-Jan-21 19:08 34.633583 -115.121080 227 6360ft 129kts
13-Jan-21 19:09 34.607856 -115.149011 229 6439ft 125kts
13-Jan-21 19:10 34.582410 -115.179716 228 6387ft 131kts
13-Jan-21 19:11 34.555150 -115.208979 227 6352ft 132kts
13-Jan-21 19:12 34.528367 -115.237806 224 6359ft 129kts
13-Jan-21 19:13 34.501231 -115.264768 223 6525ft 119kts
13-Jan-21 19:14 34.476217 -115.291958 230 6579ft 121kts
13-Jan-21 19:15 34.450214 -115.318628 225 6507ft 122kts
13-Jan-21 19:16 34.427220 -115.347219 231 6487ft 118kts
13-Jan-21 19:17 34.402685 -115.373952 226 6504ft 118kts
13-Jan-21 19:18 34.377757 -115.400213 225 6545ft 117kts
13-Jan-21 19:19 34.353762 -115.427310 231 6526ft 118kts
13-Jan-21 19:20 34.328822 -115.455105 225 6396ft 130kts
13-Jan-21 19:21 34.302363 -115.482303 222 6501ft 124kts
13-Jan-21 19:23 34.273960 -115.509546 224 6426ft 133kts
13-Jan-21 19:24 34.247927 -115.539268 230 6400ft 132kts
13-Jan-21 19:25 34.222251 -115.570269 232 6401ft 126kts
13-Jan-21 19:26 34.197379 -115.602878 237 6490ft 131kts
13-Jan-21 19:27 34.173164 -115.636305 223 6491ft 135kts
13-Jan-21 19:28 34.143229 -115.663672 223 6487ft 131kts
13-Jan-21 19:29 34.114059 -115.691304 222 6410ft 135kts
13-Jan-21 19:30 34.084184 -115.718147 221 6419ft 131kts
13-Jan-21 19:31 34.053605 -115.742679 220 6429ft 132kts
13-Jan-21 19:32 34.024545 -115.769821 224 6402ft 132kts
13-Jan-21 19:33 33.997309 -115.798776 228 6444ft 129kts
13-Jan-21 19:34 33.969866 -115.827789 225 6517ft 130kts
13-Jan-21 19:35 33.942898 -115.858072 228 6493ft 133kts
13-Jan-21 19:36 33.916279 -115.889420 231 6484ft 133kts
13-Jan-21 19:37 33.889591 -115.920767 229 6445ft 135kts
13-Jan-21 19:38 33.862673 -115.952062 229 6465ft 130kts
13-Jan-21 19:38 33.840895 -115.977576 227 6440ft 134kts
13-Jan-21 19:40 33.808056 -116.013291 217 6332ft 133kts
13-Jan-21 19:41 33.776090 -116.033541 209 6038ft 130kts
13-Jan-21 19:41 33.749362 -116.052693 216 5412ft 131kts
13-Jan-21 19:42 33.718313 -116.076716 223 3910ft 153kts
13-Jan-21 19:43 33.687273 -116.100195 217 2583ft 126kts
13-Jan-21 19:44 33.658404 -116.120709 214 1501ft 110kts
13-Jan-21 19:45 33.635521 -116.140505 235 1381ft 97kts
13-Jan-21 19:46 33.622669 -116.167615 244 1470ft 92kts
13-Jan-21 19:47 33.617890 -116.198457 321 980ft 90kts
13-Jan-21 19:48 33.628183 -116.182523 141 784ft 102kts
13-Jan-21 19:49 33.602579 -116.177265 158 558ft 77kts
13-Jan-21 19:50 33.598896 -116.158460 13 273ft 54kts
13-Jan-21 19:51 33.613491 -116.156376 356 -53ft 50kts
13-Jan-21 19:52 33.617259 -116.156380 33 -131ft 0kts
13-Jan-21 19:53 33.634477 -116.164325 270 -112ft 0kts
13-Jan-21 19:54 33.634477 -116.164325 270 -112ft 0kts

Navigation Log

Ident Type
Flight plan parsing failed, navigation log unavailable